createdAt,value
2023-09-07T00:02:35.158Z,101189.95
2023-09-07T00:05:27.298Z,101191.09
2023-09-07T00:08:02.439Z,101193.08
2023-09-07T00:10:50.274Z,101190.20
2023-09-07T00:17:35.539Z,101189.20
2023-09-07T00:21:01.153Z,101187.83
2023-09-07T00:23:39.179Z,101187.61
2023-09-07T00:26:13.666Z,101188.14
2023-09-07T00:28:47.903Z,101188.85
2023-09-07T00:35:39.989Z,101194.48
2023-09-07T00:38:43.555Z,101192.52
2023-09-07T00:41:21.133Z,101196.37
2023-09-07T00:44:12.787Z,101195.11
2023-09-07T00:46:45.811Z,101197.60
2023-09-07T00:49:19.633Z,101198.15
2023-09-07T00:51:54.453Z,101197.89
2023-09-07T00:54:31.465Z,101199.90
2023-09-07T00:57:11.862Z,101201.30
2023-09-07T00:59:44.483Z,101201.02
2023-09-07T01:02:20.722Z,101200.58
2023-09-07T01:05:10.268Z,101198.79
2023-09-07T01:07:52.705Z,101198.95
2023-09-07T01:14:16.013Z,101199.84
2023-09-07T01:16:56.831Z,101199.34
2023-09-07T01:19:35.647Z,101202.34
2023-09-07T01:22:17.796Z,101204.30
2023-09-07T01:25:01.151Z,101199.58
2023-09-07T01:27:47.571Z,101198.02
2023-09-07T01:30:24.370Z,101196.23
2023-09-07T01:33:20.933Z,101193.98
2023-09-07T01:35:56.083Z,101189.93
2023-09-07T01:38:25.928Z,101188.38
2023-09-07T01:41:04.293Z,101188.31
2023-09-07T01:43:39.934Z,101187.27
2023-09-07T01:46:17.469Z,101189.44
2023-09-07T01:48:52.848Z,101194.50
2023-09-07T01:51:31.074Z,101194.90
2023-09-07T01:54:09.827Z,101195.56
2023-09-07T01:56:42.726Z,101196.80
2023-09-07T01:59:21.109Z,101198.69
2023-09-07T02:01:59.185Z,101198.50
2023-09-07T02:04:33.635Z,101200.45
2023-09-07T02:07:16.570Z,101199.55
2023-09-07T02:09:55.441Z,101202.38
2023-09-07T02:12:32.657Z,101202.55
2023-09-07T02:15:03.810Z,101202.42
2023-09-07T02:17:48.233Z,101205.21
2023-09-07T02:20:46.665Z,101200.40
2023-09-07T02:23:21.464Z,101198.48
2023-09-07T02:25:55.568Z,101201.16
2023-09-07T02:28:54.851Z,101200.70
2023-09-07T02:31:29.955Z,101203.10
2023-09-07T02:34:36.062Z,101203.67
2023-09-07T02:37:29.788Z,101197.52
2023-09-07T02:40:44.935Z,101199.62
2023-09-07T02:43:36.339Z,101198.48
2023-09-07T02:46:46.471Z,101199.22
2023-09-07T02:49:30.797Z,101203.27
2023-09-07T02:52:21.548Z,101207.13
2023-09-07T02:54:56.274Z,101206.13
2023-09-07T02:58:13.268Z,101205.77
2023-09-07T03:01:04.561Z,101207.35
2023-09-07T03:03:33.892Z,101208.31
2023-09-07T03:06:13.286Z,101208.52
2023-09-07T03:08:56.171Z,101214.44
2023-09-07T03:11:25.604Z,101215.39
2023-09-07T03:13:57.303Z,101213.98
2023-09-07T03:16:34.576Z,101211.48
2023-09-07T03:19:05.753Z,101215.16
2023-09-07T03:21:58.271Z,101219.77
2023-09-07T03:24:34.531Z,101222.16
2023-09-07T03:27:08.696Z,101225.80
2023-09-07T03:29:45.270Z,101224.84
2023-09-07T03:32:22.530Z,101227.21
2023-09-07T03:35:33.724Z,101224.73
2023-09-07T03:38:15.152Z,101224.61
2023-09-07T03:40:44.070Z,101228.63
2023-09-07T03:43:25.452Z,101227.43
2023-09-07T03:45:54.778Z,101224.90
2023-09-07T03:48:51.945Z,101227.39
2023-09-07T03:51:28.484Z,101225.15
2023-09-07T03:54:03.229Z,101225.33
2023-09-07T03:56:49.289Z,101227.72
2023-09-07T03:59:40.448Z,101229.55
2023-09-07T04:02:15.189Z,101228.67
2023-09-07T04:04:56.346Z,101228.35
2023-09-07T04:07:34.256Z,101231.65
2023-09-07T04:10:05.898Z,101228.92
2023-09-07T04:12:39.290Z,101226.44
2023-09-07T04:15:37.704Z,101230.49
2023-09-07T04:18:19.961Z,101232.73
2023-09-07T04:20:54.567Z,101235.58
2023-09-07T04:23:27.863Z,101235.36
2023-09-07T04:26:21.343Z,101234.33
2023-09-07T04:29:15.191Z,101242.02
2023-09-07T04:31:54.835Z,101242.33
2023-09-07T04:34:34.490Z,101243.86
2023-09-07T04:37:13.347Z,101244.38
2023-09-07T04:39:50.433Z,101245.63
2023-09-07T04:43:02.041Z,101243.22
2023-09-07T04:45:37.396Z,101247.80
2023-09-07T04:48:13.400Z,101252.12
2023-09-07T04:50:42.234Z,101257.17
2023-09-07T04:53:36.929Z,101260.08
2023-09-07T04:56:24.386Z,101259.56
2023-09-07T04:59:18.749Z,101264.02
2023-09-07T05:01:50.161Z,101262.42
2023-09-07T05:04:32.573Z,101264.85
2023-09-07T05:07:10.010Z,101265.31
2023-09-07T05:09:39.076Z,101263.31
2023-09-07T05:12:52.603Z,101263.44
2023-09-07T05:15:32.544Z,101269.08
2023-09-07T05:18:18.228Z,101265.36
2023-09-07T05:20:53.987Z,101265.18
2023-09-07T05:23:34.659Z,101272.55
2023-09-07T05:26:41.081Z,101271.90
2023-09-07T05:29:13.606Z,101269.70
2023-09-07T05:32:13.084Z,101273.79
2023-09-07T05:34:45.303Z,101269.43
2023-09-07T05:37:36.991Z,101269.81
2023-09-07T05:40:35.718Z,101269.40
2023-09-07T05:43:10.892Z,101274.70
2023-09-07T05:45:56.241Z,101277.86
2023-09-07T05:52:23.176Z,101281.67
2023-09-07T06:09:31.078Z,101287.95
2023-09-07T06:22:50.778Z,101297.61
2023-09-07T06:26:33.031Z,101299.33
2023-09-07T06:36:51.622Z,101300.02
2023-09-07T06:43:37.318Z,101300.73
2023-09-07T06:46:28.961Z,101296.88
2023-09-07T06:49:20.878Z,101300.77
2023-09-07T06:52:16.403Z,101304.18
2023-09-07T06:55:21.642Z,101299.14
2023-09-07T06:58:34.531Z,101297.12
2023-09-07T07:01:58.262Z,101294.27
2023-09-07T07:05:57.987Z,101297.54
2023-09-07T07:10:04.641Z,101299.82
2023-09-07T07:23:01.128Z,101312.36
2023-09-07T07:30:08.966Z,101316.53
2023-09-07T07:33:36.870Z,101318.06
2023-09-07T07:40:34.530Z,101318.13
2023-09-07T07:44:13.672Z,101320.86
2023-09-07T07:47:45.272Z,101314.08
2023-09-07T07:51:12.590Z,101313.96
2023-09-07T07:55:07.783Z,101320.56
2023-09-07T07:58:39.817Z,101321.68
2023-09-07T08:02:06.741Z,101319.56
2023-09-07T08:05:19.643Z,101321.82
2023-09-07T08:12:44.763Z,101317.39
2023-09-07T08:16:11.164Z,101319.14
2023-09-07T08:19:35.230Z,101318.80
2023-09-07T08:23:04.995Z,101319.58
2023-09-07T08:26:19.159Z,101317.65
2023-09-07T08:29:43.899Z,101320.45
2023-09-07T08:33:16.835Z,101319.80
2023-09-07T08:36:33.117Z,101314.92
2023-09-07T08:40:03.278Z,101312.25
2023-09-07T08:43:11.317Z,101314.23
2023-09-07T08:46:44.613Z,101309.48
2023-09-07T08:50:13.991Z,101311.20
2023-09-07T08:53:34.627Z,101313.05
2023-09-07T08:56:45.814Z,101310.25
2023-09-07T08:59:37.968Z,101309.57
2023-09-07T09:02:19.730Z,101307.30
2023-09-07T09:05:47.057Z,101310.39
2023-09-07T09:09:28.759Z,101309.68
2023-09-07T09:12:58.661Z,101306.46
2023-09-07T09:16:28.173Z,101311.02
2023-09-07T09:19:59.030Z,101311.80
2023-09-07T09:23:29.613Z,101311.91
2023-09-07T09:26:55.406Z,101312.53
2023-09-07T09:30:25.813Z,101312.24
2023-09-07T09:33:56.853Z,101313.38
2023-09-07T09:37:29.694Z,101313.34
2023-09-07T09:41:02.893Z,101307.67
2023-09-07T09:44:31.773Z,101308.42
2023-09-07T09:47:55.108Z,101304.89
2023-09-07T09:51:24.223Z,101303.39
2023-09-07T09:54:55.376Z,101298.54
2023-09-07T09:58:23.117Z,101298.61
2023-09-07T10:01:52.562Z,101298.44
2023-09-07T10:05:25.647Z,101299.55
2023-09-07T10:08:47.526Z,101297.74
2023-09-07T10:11:33.942Z,101296.73
2023-09-07T10:14:05.086Z,101295.17
2023-09-07T10:17:17.278Z,101294.50
2023-09-07T10:20:33.698Z,101297.59
2023-09-07T10:23:23.870Z,101295.73
2023-09-07T10:26:27.114Z,101294.73
2023-09-07T10:29:52.953Z,101290.41
2023-09-07T10:33:26.257Z,101290.21
2023-09-07T10:36:44.883Z,101287.14
2023-09-07T10:39:39.736Z,101283.48
2023-09-07T10:42:51.155Z,101282.19
2023-09-07T10:46:02.940Z,101280.91
2023-09-07T10:49:24.559Z,101280.33
2023-09-07T10:52:23.471Z,101277.54
2023-09-07T10:55:49.429Z,101284.01
2023-09-07T10:58:48.280Z,101277.41
2023-09-07T11:01:23.640Z,101278.02
2023-09-07T11:03:51.636Z,101279.62
2023-09-07T11:06:25.735Z,101275.56
2023-09-07T11:08:58.191Z,101273.02
2023-09-07T11:11:27.452Z,101274.54
2023-09-07T11:13:57.986Z,101274.68
2023-09-07T11:16:33.024Z,101275.92
2023-09-07T11:19:04.020Z,101282.27
2023-09-07T11:21:34.247Z,101280.59
2023-09-07T11:24:05.488Z,101281.20
2023-09-07T11:30:01.717Z,101269.05
2023-09-07T11:32:34.449Z,101266.23
2023-09-07T11:35:10.154Z,101268.52
2023-09-07T11:37:38.951Z,101267.98
2023-09-07T11:40:12.872Z,101263.84
2023-09-07T11:42:42.236Z,101266.77
2023-09-07T11:45:11.060Z,101263.09
2023-09-07T11:47:42.290Z,101262.77
2023-09-07T11:50:12.420Z,101261.75
2023-09-07T11:52:40.143Z,101260.20
2023-09-07T11:55:09.217Z,101259.49
2023-09-07T11:57:37.314Z,101259.06
2023-09-07T12:00:06.030Z,101256.14
2023-09-07T12:02:43.028Z,101254.38
2023-09-07T12:05:19.473Z,101249.84
2023-09-07T12:08:20.349Z,101252.45
2023-09-07T12:11:20.245Z,101253.06
2023-09-07T12:14:53.489Z,101250.64
2023-09-07T14:39:55.736Z,101177.73
2023-09-07T14:46:37.107Z,101182.35
2023-09-07T14:56:20.280Z,101167.38
2023-09-07T14:59:13.905Z,101165.30
2023-09-07T15:02:35.932Z,101166.36
2023-09-07T15:05:46.999Z,101160.97
2023-09-07T15:09:34.105Z,101163.90
2023-09-07T15:20:10.544Z,101161.56
2023-09-07T15:27:13.658Z,101162.25
2023-09-07T15:38:25.695Z,101158.34
2023-09-07T15:44:49.191Z,101154.01
2023-09-07T15:47:26.829Z,101152.73
2023-09-07T15:49:56.979Z,101150.02
2023-09-07T15:52:25.808Z,101147.45
2023-09-07T15:54:54.936Z,101146.69
2023-09-07T15:57:28.851Z,101145.87
2023-09-07T15:59:59.469Z,101145.04
2023-09-07T16:02:27.752Z,101143.88
2023-09-07T16:04:56.455Z,101144.95
2023-09-07T16:07:26.303Z,101145.25
2023-09-07T16:09:56.037Z,101141.75
2023-09-07T16:12:24.241Z,101143.27
2023-09-07T16:14:55.312Z,101142.66
2023-09-07T16:17:24.166Z,101146.35
2023-09-07T16:19:53.720Z,101148.73
2023-09-07T16:22:23.856Z,101155.08
2023-09-07T16:24:52.028Z,101157.80
2023-09-07T16:27:19.840Z,101157.09
2023-09-07T16:29:50.157Z,101157.83
2023-09-07T16:32:20.412Z,101159.02
2023-09-07T16:34:49.010Z,101156.98
2023-09-07T16:37:18.080Z,101156.72
2023-09-07T16:39:48.435Z,101152.84
2023-09-07T16:42:16.901Z,101149.05
2023-09-07T16:44:47.184Z,101149.33
2023-09-07T16:47:18.031Z,101146.92
2023-09-07T16:49:46.324Z,101147.34
2023-09-07T16:52:15.643Z,101145.75
2023-09-07T16:54:45.705Z,101144.52
2023-09-07T16:57:13.892Z,101143.16
2023-09-07T17:02:16.277Z,101153.73
2023-09-07T17:04:44.099Z,101152.79
2023-09-07T17:07:25.676Z,101151.16
2023-09-07T17:09:54.100Z,101152.52
2023-09-07T17:12:25.346Z,101154.30
2023-09-07T17:14:53.771Z,101153.10
2023-09-07T17:17:22.531Z,101146.61
2023-09-07T17:19:51.740Z,101147.34
2023-09-07T17:22:21.066Z,101148.84
2023-09-07T17:24:49.606Z,101147.22
2023-09-07T17:27:18.837Z,101141.27
2023-09-07T17:29:47.975Z,101145.88
2023-09-07T17:32:15.950Z,101146.36
2023-09-07T17:34:45.909Z,101152.19
2023-09-07T17:37:16.770Z,101151.08
2023-09-07T17:39:44.938Z,101155.30
2023-09-07T17:42:14.430Z,101161.79
2023-09-07T17:44:44.834Z,101162.48
2023-09-07T17:47:13.196Z,101165.73
2023-09-07T17:49:45.865Z,101169.19
2023-09-07T17:52:15.559Z,101172.27
2023-09-07T17:54:44.727Z,101172.96
2023-09-07T17:57:13.745Z,101170.91
2023-09-07T17:59:43.960Z,101170.70
2023-09-07T18:02:20.747Z,101171.12
2023-09-07T18:05:00.133Z,101175.02
2023-09-07T18:07:30.260Z,101173.79
2023-09-07T18:09:58.466Z,101175.79
2023-09-07T18:12:29.487Z,101175.70
2023-09-07T18:15:00.330Z,101173.71
2023-09-07T18:17:31.689Z,101171.14
2023-09-07T18:20:00.894Z,101168.66
2023-09-07T18:22:30.663Z,101168.06
2023-09-07T18:24:59.746Z,101166.33
2023-09-07T18:27:30.177Z,101166.67
2023-09-07T18:30:01.405Z,101168.74
2023-09-07T18:32:31.779Z,101173.05
2023-09-07T18:35:03.988Z,101171.18
2023-09-07T18:37:36.950Z,101171.36
2023-09-07T18:40:09.885Z,101170.67
2023-09-07T18:42:40.239Z,101170.45
2023-09-07T18:45:08.798Z,101172.92
2023-09-07T18:47:38.393Z,101173.83
2023-09-07T18:50:13.362Z,101179.92
2023-09-07T18:52:41.461Z,101178.52
2023-09-07T18:55:11.043Z,101179.33
2023-09-07T18:57:40.263Z,101183.23
2023-09-07T19:00:18.969Z,101187.30
2023-09-07T19:02:50.404Z,101189.96
2023-09-07T19:05:21.036Z,101191.83
2023-09-07T19:08:03.543Z,101191.94
2023-09-07T19:10:32.388Z,101191.09
2023-09-07T19:13:28.530Z,101191.77
2023-09-07T19:16:00.063Z,101192.15
2023-09-07T19:18:38.999Z,101194.17
2023-09-07T19:21:21.376Z,101186.42
2023-09-07T19:23:55.508Z,101187.96
2023-09-07T19:26:37.339Z,101188.55
2023-09-07T19:29:12.442Z,101188.62
2023-09-07T19:31:42.335Z,101190.40
2023-09-07T19:34:11.728Z,101188.32
2023-09-07T19:36:42.686Z,101188.31
2023-09-07T19:39:13.326Z,101190.55
2023-09-07T19:41:42.681Z,101188.25
2023-09-07T19:44:14.047Z,101188.23
2023-09-07T19:46:43.822Z,101188.61
2023-09-07T19:49:16.412Z,101189.14
2023-09-07T19:52:03.480Z,101185.98
2023-09-07T19:54:34.975Z,101178.45
2023-09-07T19:57:19.677Z,101184.08
2023-09-07T19:59:54.083Z,101181.98
2023-09-07T20:02:24.624Z,101178.50
2023-09-07T20:04:54.813Z,101179.87
2023-09-07T20:07:23.003Z,101180.77
2023-09-07T20:09:52.659Z,101180.69
2023-09-07T20:12:48.150Z,101186.64
2023-09-07T20:15:19.045Z,101182.48
2023-09-07T20:17:50.722Z,101180.60
2023-09-07T20:20:18.976Z,101181.23
2023-09-07T20:22:48.812Z,101180.32
2023-09-07T20:25:18.940Z,101175.89
2023-09-07T20:27:47.198Z,101178.16
2023-09-07T20:30:17.695Z,101174.80
2023-09-07T20:32:46.623Z,101176.42
2023-09-07T20:35:15.957Z,101176.63
2023-09-07T20:37:45.598Z,101178.95
2023-09-07T20:40:15.221Z,101178.83
2023-09-07T20:42:43.835Z,101179.39
2023-09-07T20:45:11.800Z,101177.12
2023-09-07T20:47:42.202Z,101175.45
2023-09-07T20:50:13.819Z,101179.38
2023-09-07T20:52:43.376Z,101182.56
2023-09-07T20:55:12.791Z,101178.12
2023-09-07T20:57:44.273Z,101181.56
2023-09-07T21:00:15.146Z,101185.27
2023-09-07T21:02:46.114Z,101181.30
2023-09-07T21:05:16.761Z,101184.18
2023-09-07T21:07:44.253Z,101182.52
2023-09-07T21:10:13.227Z,101184.23
2023-09-07T21:12:44.192Z,101184.22
2023-09-07T21:15:13.049Z,101185.98
2023-09-07T21:17:41.550Z,101186.24
2023-09-07T21:20:10.936Z,101187.16
2023-09-07T21:22:40.612Z,101187.27
2023-09-07T21:25:10.644Z,101186.20
2023-09-07T21:27:40.240Z,101184.27
2023-09-07T21:30:08.937Z,101180.16
2023-09-07T21:32:37.841Z,101182.05
2023-09-07T21:35:07.797Z,101186.13
2023-09-07T21:37:35.291Z,101187.07
2023-09-07T21:40:02.794Z,101188.91
2023-09-07T21:42:30.424Z,101193.88
2023-09-07T21:45:00.292Z,101189.97
2023-09-07T21:47:31.169Z,101193.45
2023-09-07T21:50:02.114Z,101191.71
2023-09-07T21:52:31.310Z,101190.40
2023-09-07T21:55:00.223Z,101188.99
2023-09-07T21:57:28.858Z,101191.36
2023-09-07T21:59:57.904Z,101192.92
2023-09-07T22:02:26.959Z,101189.90
2023-09-07T22:04:55.466Z,101190.12
2023-09-07T22:07:23.081Z,101192.15
2023-09-07T22:09:55.473Z,101192.05
2023-09-07T22:12:25.348Z,101192.11
2023-09-07T22:14:54.390Z,101192.70
2023-09-07T22:17:24.230Z,101196.30
2023-09-07T22:19:54.908Z,101197.21
2023-09-07T22:22:27.193Z,101199.39
2023-09-07T22:24:54.647Z,101196.20
2023-09-07T22:27:22.556Z,101199.23
2023-09-07T22:29:54.016Z,101198.96
2023-09-07T22:32:23.194Z,101194.45
2023-09-07T22:34:52.993Z,101191.76
2023-09-07T22:37:22.511Z,101195.66
2023-09-07T22:39:50.592Z,101196.09
2023-09-07T22:42:18.916Z,101192.65
2023-09-07T22:44:46.971Z,101196.38
2023-09-07T22:47:15.374Z,101195.60
2023-09-07T22:49:43.780Z,101194.73
2023-09-07T22:52:11.864Z,101197.60
2023-09-07T22:54:43.678Z,101198.16
2023-09-07T22:57:13.926Z,101198.50
2023-09-07T22:59:41.411Z,101198.77
2023-09-07T23:02:09.976Z,101196.20
2023-09-07T23:04:39.693Z,101193.08
2023-09-07T23:07:14.041Z,101190.17
2023-09-07T23:09:44.636Z,101192.05
2023-09-07T23:12:16.303Z,101195.13
2023-09-07T23:14:44.776Z,101193.78
2023-09-07T23:17:14.221Z,101187.56
2023-09-07T23:19:43.447Z,101186.37
2023-09-07T23:22:12.644Z,101188.32
2023-09-07T23:24:41.696Z,101186.81
2023-09-07T23:27:13.376Z,101186.86
2023-09-07T23:29:41.845Z,101187.50
2023-09-07T23:32:09.629Z,101181.65
2023-09-07T23:34:39.137Z,101180.16
2023-09-07T23:37:08.745Z,101176.80
2023-09-07T23:39:37.330Z,101179.21
2023-09-07T23:42:08.072Z,101178.12
2023-09-07T23:44:40.420Z,101177.39
2023-09-07T23:47:08.955Z,101177.29
2023-09-07T23:49:36.884Z,101176.09
2023-09-07T23:52:06.420Z,101172.23
2023-09-07T23:54:35.061Z,101174.73
2023-09-07T23:57:05.274Z,101171.15
2023-09-07T23:59:33.928Z,101171.52
